Time;durP1;ratioP1;P1;durP2;ratioP2;P2;SDS_P1;SDS_P2;PMS_P1;PMS_P2;Temp;Humidity;BMP_temperature;BMP_pressure;BME280_temperature;BME280_humidity;BME280_pressure;Samples;Min_cycle;Max_cycle;Signal;HPM_P1;HPM_P2
2022/11/07 00:02:05;;;;;;;3.33;1.20;;;;;;;;;;4980195;28;20038;-85
2022/11/07 00:04:31;;;;;;;4.60;1.30;;;;;;;;;;4996661;28;20391;-86
2022/11/07 00:06:57;;;;;;;2.45;1.25;;;;;;;;;;4997682;28;20030;-85
2022/11/07 00:09:23;;;;;;;2.00;1.10;;;;;;;;;;4997100;28;20077;-86
2022/11/07 00:11:49;;;;;;;3.58;1.50;;;;;;;;;;4979291;28;20027;-86
2022/11/07 00:14:18;;;;;;;3.42;1.40;;;;;;;;;;4977963;28;20049;-85
2022/11/07 00:16:45;;;;;;;2.13;1.10;;;;;;;;;;4997485;28;20322;-86
2022/11/07 00:19:13;;;;;;;1.58;1.00;;;;;;;;;;4997374;28;20046;-86
2022/11/07 00:21:39;;;;;;;1.48;0.90;;;;;;;;;;4997003;28;20049;-85
2022/11/07 00:24:05;;;;;;;1.08;0.88;;;;;;;;;;4995821;28;20050;-85
2022/11/07 00:26:31;;;;;;;1.65;0.80;;;;;;;;;;4980041;28;20042;-86
2022/11/07 00:28:57;;;;;;;1.00;0.80;;;;;;;;;;4996781;28;20035;-85
2022/11/07 00:31:22;;;;;;;1.63;0.85;;;;;;;;;;4997135;28;20449;-85
2022/11/07 00:33:48;;;;;;;2.10;0.98;;;;;;;;;;4997363;28;20030;-86
2022/11/07 00:36:25;;;;;;;1.65;0.98;;;;;;;;;;4996593;28;20434;-86
2022/11/07 00:38:51;;;;;;;1.88;1.00;;;;;;;;;;4997162;28;20035;-85
2022/11/07 00:41:17;;;;;;;3.35;1.02;;;;;;;;;;4996870;28;20157;-85
2022/11/07 00:43:43;;;;;;;1.27;0.95;;;;;;;;;;4979591;28;20038;-84
2022/11/07 00:46:11;;;;;;;3.60;0.90;;;;;;;;;;4996262;28;20038;-85
2022/11/07 00:48:37;;;;;;;1.65;0.90;;;;;;;;;;4980922;28;20166;-86
2022/11/07 00:51:11;;;;;;;1.17;0.80;;;;;;;;;;5001015;28;20486;-85
2022/11/07 00:53:37;;;;;;;1.65;0.90;;;;;;;;;;5001093;28;20463;-85
2022/11/07 00:56:05;;;;;;;2.05;0.98;;;;;;;;;;4999717;28;20065;-86
2022/11/07 00:58:30;;;;;;;2.53;1.10;;;;;;;;;;4982949;28;20133;-86
2022/11/07 01:00:56;;;;;;;1.42;1.00;;;;;;;;;;4982843;28;20062;-85
2022/11/07 01:06:07;;;;;;;1.27;0.90;;;;;;;;;;5015277;28;20030;-86
2022/11/07 01:08:32;;;;;;;1.08;0.80;;;;;;;;;;4999624;28;20502;-85
2022/11/07 01:10:58;;;;;;;1.20;0.88;;;;;;;;;;5000751;28;20030;-85
2022/11/07 01:13:24;;;;;;;1.05;0.82;;;;;;;;;;4998338;28;20149;-85
2022/11/07 01:15:51;;;;;;;0.70;0.70;;;;;;;;;;4999655;28;20546;-85
2022/11/07 01:18:16;;;;;;;1.00;0.70;;;;;;;;;;4982843;28;20026;-85
2022/11/07 01:20:42;;;;;;;0.85;0.75;;;;;;;;;;4982732;28;20034;-86
2022/11/07 01:23:07;;;;;;;1.17;0.77;;;;;;;;;;4982955;28;20050;-85
2022/11/07 01:25:36;;;;;;;1.55;0.80;;;;;;;;;;4998992;28;20085;-85
2022/11/07 01:28:03;;;;;;;0.90;0.80;;;;;;;;;;4999596;28;20035;-85
2022/11/07 01:30:29;;;;;;;1.08;0.75;;;;;;;;;;5000361;28;20042;-85
2022/11/07 01:32:54;;;;;;;1.20;0.90;;;;;;;;;;4982365;28;20084;-84
2022/11/07 01:35:20;;;;;;;2.45;1.00;;;;;;;;;;4981549;28;20418;-85
2022/11/07 01:37:45;;;;;;;1.60;1.10;;;;;;;;;;4982076;28;20022;-85
2022/11/07 01:40:11;;;;;;;1.27;0.82;;;;;;;;;;4999897;28;20117;-85
2022/11/07 01:42:37;;;;;;;1.20;0.80;;;;;;;;;;4999056;28;20089;-84
2022/11/07 01:45:02;;;;;;;1.42;0.80;;;;;;;;;;4999071;28;20036;-85
2022/11/07 01:47:34;;;;;;;0.90;0.70;;;;;;;;;;5014075;28;20034;-85
2022/11/07 01:49:59;;;;;;;1.30;0.80;;;;;;;;;;4999292;28;20041;-85
2022/11/07 01:52:32;;;;;;;1.17;0.80;;;;;;;;;;4999328;28;20026;-85
2022/11/07 01:54:58;;;;;;;2.63;0.70;;;;;;;;;;4998900;28;20030;-85
2022/11/07 01:57:28;;;;;;;1.13;0.77;;;;;;;;;;5014202;28;20026;-84
2022/11/07 01:59:57;;;;;;;1.48;0.95;;;;;;;;;;4980418;28;20038;-85
2022/11/07 02:02:25;;;;;;;0.80;0.70;;;;;;;;;;4981498;28;20034;-85
2022/11/07 02:04:53;;;;;;;0.70;0.63;;;;;;;;;;4998089;28;20042;-85
2022/11/07 02:07:20;;;;;;;1.02;0.70;;;;;;;;;;4981574;28;20376;-85
2022/11/07 02:09:47;;;;;;;0.82;0.70;;;;;;;;;;4999430;28;20034;-85
2022/11/07 02:12:13;;;;;;;1.95;0.90;;;;;;;;;;4999367;28;20038;-85
2022/11/07 02:14:41;;;;;;;1.50;1.00;;;;;;;;;;4979841;28;20041;-85
2022/11/07 02:17:07;;;;;;;1.48;0.90;;;;;;;;;;4999595;28;20088;-85
2022/11/07 02:19:41;;;;;;;0.93;0.80;;;;;;;;;;4999463;28;20034;-85
2022/11/07 02:22:12;;;;;;;1.40;0.82;;;;;;;;;;4998635;28;20521;-85
2022/11/07 02:24:38;;;;;;;1.30;0.85;;;;;;;;;;4998304;28;20406;-85
2022/11/07 02:27:08;;;;;;;1.73;0.82;;;;;;;;;;4981277;28;20189;-86
2022/11/07 02:29:37;;;;;;;1.00;0.70;;;;;;;;;;4998474;28;20034;-85
2022/11/07 02:32:06;;;;;;;2.25;0.70;;;;;;;;;;4981370;28;20037;-85
2022/11/07 02:34:32;;;;;;;0.88;0.70;;;;;;;;;;4998624;28;20041;-84
2022/11/07 02:36:59;;;;;;;1.10;0.80;;;;;;;;;;4999354;28;20049;-85
2022/11/07 02:39:25;;;;;;;1.02;0.77;;;;;;;;;;4981343;28;20070;-85
2022/11/07 02:41:53;;;;;;;2.20;0.77;;;;;;;;;;4981203;28;20049;-85
2022/11/07 02:44:19;;;;;;;1.80;0.98;;;;;;;;;;4980218;28;20089;-85
2022/11/07 02:46:45;;;;;;;1.17;0.80;;;;;;;;;;4998620;28;20026;-84
2022/11/07 02:49:11;;;;;;;0.75;0.70;;;;;;;;;;4998228;28;20050;-85
2022/11/07 02:51:36;;;;;;;0.77;0.70;;;;;;;;;;4981253;28;20457;-85
2022/11/07 02:54:02;;;;;;;0.80;0.70;;;;;;;;;;4997593;28;20040;-84
2022/11/07 02:56:27;;;;;;;1.33;0.70;;;;;;;;;;4998680;28;20094;-85
2022/11/07 02:58:54;;;;;;;1.15;0.80;;;;;;;;;;4998329;28;20030;-85
2022/11/07 03:01:20;;;;;;;1.85;0.70;;;;;;;;;;4998172;28;20030;-85
2022/11/07 03:03:49;;;;;;;1.00;0.70;;;;;;;;;;4998333;28;20046;-85
2022/11/07 03:06:21;;;;;;;2.03;0.80;;;;;;;;;;4997381;28;20064;-85
2022/11/07 03:08:46;;;;;;;1.17;0.75;;;;;;;;;;4997437;28;20104;-85
2022/11/07 03:11:12;;;;;;;1.17;0.90;;;;;;;;;;4997408;28;20442;-85
2022/11/07 03:13:38;;;;;;;1.15;0.80;;;;;;;;;;4979435;28;20079;-85
2022/11/07 03:16:09;;;;;;;1.85;0.90;;;;;;;;;;4979126;28;20490;-85
2022/11/07 03:18:35;;;;;;;0.95;0.80;;;;;;;;;;4980177;28;20057;-85
2022/11/07 03:21:00;;;;;;;3.67;1.02;;;;;;;;;;4997387;28;20038;-85
2022/11/07 03:23:26;;;;;;;0.77;0.70;;;;;;;;;;4980599;28;20043;-85
2022/11/07 03:25:51;;;;;;;1.52;0.85;;;;;;;;;;4996932;28;20038;-85
2022/11/07 03:28:16;;;;;;;0.98;0.70;;;;;;;;;;5012643;28;20450;-85
2022/11/07 03:30:42;;;;;;;1.60;0.88;;;;;;;;;;4997845;28;20035;-85
2022/11/07 03:33:08;;;;;;;1.00;0.80;;;;;;;;;;4979959;28;20049;-85
2022/11/07 03:35:34;;;;;;;1.20;1.00;;;;;;;;;;4979796;28;20042;-85
2022/11/07 03:37:59;;;;;;;1.05;0.88;;;;;;;;;;4997269;28;20208;-86
2022/11/07 03:40:25;;;;;;;1.48;1.10;;;;;;;;;;4997831;28;20058;-85
2022/11/07 03:42:50;;;;;;;1.40;0.90;;;;;;;;;;4996864;28;20038;-86
2022/11/07 03:45:16;;;;;;;0.90;0.80;;;;;;;;;;4996775;28;20050;-86
2022/11/07 03:47:43;;;;;;;0.85;0.70;;;;;;;;;;4997005;28;20487;-86
2022/11/07 03:50:12;;;;;;;1.00;0.80;;;;;;;;;;4997279;28;20054;-85
2022/11/07 03:52:37;;;;;;;1.23;0.90;;;;;;;;;;4997008;28;20026;-86
2022/11/07 03:55:03;;;;;;;0.85;0.70;;;;;;;;;;4979056;28;20061;-86
2022/11/07 03:57:29;;;;;;;1.65;0.80;;;;;;;;;;4997721;28;20030;-86
2022/11/07 03:59:54;;;;;;;1.17;0.80;;;;;;;;;;4996681;28;20456;-86
2022/11/07 04:02:22;;;;;;;2.63;0.90;;;;;;;;;;5012638;28;20561;-86
2022/11/07 04:04:48;;;;;;;2.10;0.80;;;;;;;;;;4995436;28;20239;-86
2022/11/07 04:07:13;;;;;;;1.40;0.90;;;;;;;;;;4996730;28;20655;-85
2022/11/07 04:09:39;;;;;;;1.27;0.90;;;;;;;;;;4997288;28;20046;-86
2022/11/07 04:17:32;;;;;;;1.23;0.90;;;;;;;;;;4996916;28;20034;-85
2022/11/07 04:19:58;;;;;;;1.10;0.82;;;;;;;;;;4979831;28;20041;-85
2022/11/07 04:22:25;;;;;;;3.47;1.50;;;;;;;;;;4997315;28;20148;-86
2022/11/07 04:24:51;;;;;;;3.08;1.60;;;;;;;;;;5000247;28;20038;-85
2022/11/07 04:30:17;;;;;;;2.13;1.30;;;;;;;;;;5000590;28;20069;-85
2022/11/07 04:32:47;;;;;;;1.83;1.00;;;;;;;;;;5015957;28;20043;-85
2022/11/07 04:35:13;;;;;;;1.15;0.90;;;;;;;;;;4982579;28;20490;-85
2022/11/07 04:37:39;;;;;;;2.25;1.50;;;;;;;;;;5000116;28;20041;-85
2022/11/07 04:40:06;;;;;;;2.42;1.50;;;;;;;;;;4983454;28;20038;-86
2022/11/07 04:42:31;;;;;;;3.08;1.90;;;;;;;;;;5000870;28;20104;-85
2022/11/07 04:44:56;;;;;;;1.30;1.00;;;;;;;;;;4982455;28;20058;-86
2022/11/07 04:47:22;;;;;;;1.58;1.10;;;;;;;;;;5001593;28;20656;-85
2022/11/07 04:49:47;;;;;;;2.15;1.10;;;;;;;;;;4983168;28;20451;-85
2022/11/07 04:52:13;;;;;;;1.77;1.30;;;;;;;;;;5000256;28;20038;-85
2022/11/07 04:54:38;;;;;;;1.75;1.10;;;;;;;;;;4999692;28;20050;-85
2022/11/07 04:57:04;;;;;;;2.80;1.38;;;;;;;;;;4982587;28;20038;-85
2022/11/07 04:59:29;;;;;;;3.97;1.25;;;;;;;;;;5000249;28;20073;-86
2022/11/07 05:01:55;;;;;;;1.48;1.08;;;;;;;;;;4982255;28;20042;-85
2022/11/07 05:04:20;;;;;;;1.90;0.90;;;;;;;;;;4999669;28;20038;-86
2022/11/07 05:06:45;;;;;;;1.25;0.85;;;;;;;;;;4983010;28;20569;-85
2022/11/07 05:09:16;;;;;;;1.52;1.00;;;;;;;;;;4999639;28;20406;-85
2022/11/07 05:11:46;;;;;;;1.60;0.95;;;;;;;;;;4982161;28;20530;-85
2022/11/07 05:14:12;;;;;;;1.17;0.88;;;;;;;;;;4998575;28;20095;-85
2022/11/07 05:16:39;;;;;;;2.67;0.90;;;;;;;;;;5000618;28;20034;-86
2022/11/07 05:19:04;;;;;;;1.98;1.08;;;;;;;;;;4966586;28;20030;-85
2022/11/07 05:21:30;;;;;;;1.05;0.80;;;;;;;;;;5000167;28;20057;-86
2022/11/07 05:23:55;;;;;;;2.22;1.08;;;;;;;;;;4999445;28;20054;-84
2022/11/07 05:26:20;;;;;;;1.70;0.90;;;;;;;;;;4997552;28;20043;-86
2022/11/07 05:28:46;;;;;;;1.20;0.90;;;;;;;;;;4981132;28;20046;-84
2022/11/07 05:31:15;;;;;;;0.93;0.80;;;;;;;;;;4999870;28;20080;-85
2022/11/07 05:33:41;;;;;;;1.58;1.10;;;;;;;;;;4981787;28;20038;-84
2022/11/07 05:36:18;;;;;;;2.85;1.70;;;;;;;;;;4998855;28;20089;-85
2022/11/07 05:38:45;;;;;;;3.00;1.30;;;;;;;;;;4998483;28;20054;-86
2022/11/07 05:41:12;;;;;;;2.20;1.50;;;;;;;;;;4999506;28;20073;-85
2022/11/07 05:43:38;;;;;;;1.77;1.20;;;;;;;;;;4981196;28;20026;-86
2022/11/07 05:46:05;;;;;;;1.75;1.10;;;;;;;;;;4998319;28;20057;-86
2022/11/07 05:48:31;;;;;;;3.10;1.20;;;;;;;;;;4999234;28;20046;-85
2022/11/07 05:50:57;;;;;;;2.47;1.27;;;;;;;;;;4981304;28;20034;-85
2022/11/07 05:53:24;;;;;;;1.33;0.98;;;;;;;;;;4999463;28;20038;-85
2022/11/07 05:55:51;;;;;;;2.40;1.25;;;;;;;;;;4998581;28;20097;-85
2022/11/07 05:58:17;;;;;;;2.17;1.30;;;;;;;;;;4999402;28;20030;-85
2022/11/07 06:00:43;;;;;;;1.38;1.08;;;;;;;;;;4981243;28;20517;-86
2022/11/07 06:03:09;;;;;;;2.55;1.00;;;;;;;;;;4998795;28;20050;-85
2022/11/07 06:05:42;;;;;;;1.50;1.00;;;;;;;;;;4980416;28;20579;-85
2022/11/07 06:08:10;;;;;;;2.05;1.13;;;;;;;;;;4998659;28;20030;-85
2022/11/07 06:10:40;;;;;;;1.52;0.95;;;;;;;;;;4998042;28;20037;-85
2022/11/07 06:13:09;;;;;;;1.27;0.90;;;;;;;;;;4996438;28;20381;-84
2022/11/07 06:15:36;;;;;;;1.40;1.00;;;;;;;;;;4997770;28;20467;-84
2022/11/07 06:18:03;;;;;;;1.50;1.10;;;;;;;;;;4981000;28;20121;-85
2022/11/07 06:20:29;;;;;;;1.35;1.10;;;;;;;;;;4998616;28;20038;-85
2022/11/07 06:23:02;;;;;;;1.42;1.10;;;;;;;;;;4998831;28;20044;-85
2022/11/07 06:25:28;;;;;;;1.60;1.20;;;;;;;;;;4997624;28;20491;-84
2022/11/07 06:27:59;;;;;;;1.70;1.10;;;;;;;;;;4981383;28;20113;-85
2022/11/07 06:30:25;;;;;;;1.38;1.05;;;;;;;;;;4981089;28;20388;-84
2022/11/07 06:32:50;;;;;;;1.58;0.88;;;;;;;;;;4980724;28;20041;-85
2022/11/07 06:35:16;;;;;;;2.22;1.63;;;;;;;;;;4998382;28;20053;-85
2022/11/07 06:37:41;;;;;;;3.70;2.13;;;;;;;;;;4998117;28;20038;-85
2022/11/07 06:40:08;;;;;;;2.53;1.70;;;;;;;;;;4998549;28;20046;-85
2022/11/07 06:42:33;;;;;;;1.58;1.10;;;;;;;;;;4980439;28;20125;-84
2022/11/07 06:44:59;;;;;;;2.25;0.88;;;;;;;;;;4980029;28;20053;-85
2022/11/07 06:47:24;;;;;;;1.48;1.10;;;;;;;;;;4997131;28;20038;-84
2022/11/07 06:49:49;;;;;;;1.02;0.82;;;;;;;;;;4980362;28;20577;-84
2022/11/07 06:52:15;;;;;;;2.03;1.20;;;;;;;;;;4998070;28;20461;-84
2022/11/07 06:54:42;;;;;;;1.50;1.10;;;;;;;;;;4996586;28;20145;-85
2022/11/07 06:57:08;;;;;;;1.77;1.15;;;;;;;;;;4997807;28;20065;-85
2022/11/07 06:59:33;;;;;;;1.95;1.50;;;;;;;;;;4997587;28;20030;-85
2022/11/07 07:01:58;;;;;;;4.72;1.83;;;;;;;;;;4997399;28;20025;-85
2022/11/07 07:04:24;;;;;;;3.40;1.45;;;;;;;;;;4996554;28;20117;-86
2022/11/07 07:06:49;;;;;;;1.83;1.20;;;;;;;;;;4996604;28;20118;-84
2022/11/07 07:09:15;;;;;;;1.65;1.08;;;;;;;;;;4997261;28;20522;-84
2022/11/07 07:11:41;;;;;;;4.45;1.58;;;;;;;;;;4996999;28;20069;-85
2022/11/07 07:14:07;;;;;;;2.25;1.40;;;;;;;;;;4977409;28;20455;-86
2022/11/07 07:16:32;;;;;;;4.40;1.30;;;;;;;;;;4997675;28;20034;-86
2022/11/07 07:18:58;;;;;;;1.60;1.20;;;;;;;;;;4963625;28;20030;-85
2022/11/07 07:21:24;;;;;;;3.70;1.20;;;;;;;;;;4997377;28;20100;-86
2022/11/07 07:23:50;;;;;;;1.17;1.00;;;;;;;;;;4996644;28;20022;-85
2022/11/07 07:26:16;;;;;;;2.17;1.20;;;;;;;;;;4996945;28;20096;-86
2022/11/07 07:28:43;;;;;;;1.55;1.00;;;;;;;;;;4997542;28;20054;-85
2022/11/07 07:31:14;;;;;;;2.20;1.50;;;;;;;;;;4997577;28;20049;-86
2022/11/07 07:33:40;;;;;;;1.58;1.23;;;;;;;;;;4980644;28;20038;-86
2022/11/07 07:36:07;;;;;;;3.83;1.50;;;;;;;;;;4997147;28;20038;-86
2022/11/07 07:38:32;;;;;;;3.42;1.40;;;;;;;;;;4997557;28;20101;-87
2022/11/07 07:40:58;;;;;;;7.80;3.58;;;;;;;;;;4997250;28;20117;-87
2022/11/07 07:43:25;;;;;;;4.05;2.22;;;;;;;;;;4997265;28;20045;-86
2022/11/07 07:45:50;;;;;;;6.25;2.30;;;;;;;;;;4996204;28;20045;-87
2022/11/07 07:48:16;;;;;;;11.02;3.22;;;;;;;;;;4997085;28;20119;-87
2022/11/07 07:50:41;;;;;;;5.57;2.20;;;;;;;;;;4997396;28;20117;-88
2022/11/07 07:53:07;;;;;;;3.45;1.60;;;;;;;;;;4997196;28;20446;-88
2022/11/07 07:55:33;;;;;;;4.25;2.00;;;;;;;;;;4978618;28;20045;-86
2022/11/07 07:57:59;;;;;;;3.00;1.40;;;;;;;;;;4997412;28;20038;-87
2022/11/07 08:00:24;;;;;;;2.58;1.60;;;;;;;;;;4996054;28;20061;-87
2022/11/07 08:02:49;;;;;;;2.33;1.20;;;;;;;;;;4994649;28;20101;-83
2022/11/07 08:05:15;;;;;;;1.98;1.10;;;;;;;;;;4994373;28;20026;-84
2022/11/07 08:07:48;;;;;;;2.83;1.33;;;;;;;;;;4987242;28;20042;-84
2022/11/07 08:10:15;;;;;;;;;;;;;;;;;;4979458;28;20121;-83
2022/11/07 08:12:48;;;;;;;2.85;1.20;;;;;;;;;;4978244;28;20001;-85
2022/11/07 08:15:15;;;;;;;3.72;2.00;;;;;;;;;;4977706;28;20554;-85
2022/11/07 08:17:41;;;;;;;2.83;1.42;;;;;;;;;;4978098;28;20038;-85
2022/11/07 08:20:09;;;;;;;1.48;1.10;;;;;;;;;;4979415;28;20049;-84
2022/11/07 08:22:38;;;;;;;2.60;1.10;;;;;;;;;;4986741;28;20045;-85
2022/11/07 08:25:05;;;;;;;2.67;1.25;;;;;;;;;;4977369;28;20503;-84
2022/11/07 08:27:31;;;;;;;1.95;1.00;;;;;;;;;;4996797;28;20038;-86
2022/11/07 08:29:57;;;;;;;3.50;1.40;;;;;;;;;;4978828;28;20117;-86
2022/11/07 08:32:25;;;;;;;5.40;1.40;;;;;;;;;;4996400;28;20503;-86
2022/11/07 08:34:50;;;;;;;2.55;1.10;;;;;;;;;;4978731;28;20044;-86
2022/11/07 08:37:16;;;;;;;1.50;1.00;;;;;;;;;;4996834;28;20094;-86
2022/11/07 08:39:41;;;;;;;1.17;0.77;;;;;;;;;;4995348;28;20062;-85
2022/11/07 08:42:06;;;;;;;1.40;0.90;;;;;;;;;;4997015;28;20038;-85
2022/11/07 08:44:35;;;;;;;1.73;0.80;;;;;;;;;;4996702;28;20069;-86
2022/11/07 08:47:01;;;;;;;1.30;1.00;;;;;;;;;;4978131;28;20034;-86
2022/11/07 08:49:27;;;;;;;2.28;1.00;;;;;;;;;;4994535;28;20070;-85
2022/11/07 08:51:52;;;;;;;1.85;1.00;;;;;;;;;;4995505;28;20041;-86
2022/11/07 08:54:18;;;;;;;1.38;1.00;;;;;;;;;;4995000;28;20035;-85
2022/11/07 08:56:43;;;;;;;2.85;1.00;;;;;;;;;;4995457;28;20128;-84
2022/11/07 08:59:09;;;;;;;2.38;1.58;;;;;;;;;;4995540;28;20126;-85
2022/11/07 09:01:35;;;;;;;2.50;1.50;;;;;;;;;;4995790;28;20031;-85
2022/11/07 09:04:01;;;;;;;4.57;1.33;;;;;;;;;;4995581;28;20081;-85
2022/11/07 09:06:26;;;;;;;4.82;2.40;;;;;;;;;;4995511;28;20046;-85
2022/11/07 09:08:55;;;;;;;3.72;1.92;;;;;;;;;;4978819;28;20076;-86
2022/11/07 09:11:20;;;;;;;5.28;2.25;;;;;;;;;;4994566;28;20041;-85
2022/11/07 09:13:46;;;;;;;1.92;1.15;;;;;;;;;;4980215;28;20432;-85
2022/11/07 09:16:16;;;;;;;2.55;1.38;;;;;;;;;;4998221;28;20042;-85
2022/11/07 09:18:43;;;;;;;2.42;1.10;;;;;;;;;;4998840;28;20045;-85
2022/11/07 09:21:09;;;;;;;2.33;1.17;;;;;;;;;;4981372;28;20023;-85
2022/11/07 09:23:34;;;;;;;1.45;1.00;;;;;;;;;;4981757;28;20084;-86
2022/11/07 09:26:00;;;;;;;2.20;0.80;;;;;;;;;;4999236;28;20034;-84
2022/11/07 09:28:26;;;;;;;1.95;0.90;;;;;;;;;;4982039;28;20030;-85
2022/11/07 09:30:53;;;;;;;3.00;1.00;;;;;;;;;;4998890;28;20096;-86
2022/11/07 09:33:19;;;;;;;7.28;2.28;;;;;;;;;;4999476;28;20034;-88
2022/11/07 09:35:44;;;;;;;4.13;1.10;;;;;;;;;;4982383;28;20068;-87
2022/11/07 09:38:10;;;;;;;7.70;3.63;;;;;;;;;;4998725;28;20444;-86
2022/11/07 09:40:51;;;;;;;2.53;1.40;;;;;;;;;;4999086;28;20476;-86
2022/11/07 09:43:44;;;;;;;3.97;1.80;;;;;;;;;;4999066;28;20060;-86
2022/11/07 09:46:19;;;;;;;0.98;0.77;;;;;;;;;;4997716;28;20403;-86
2022/11/07 09:49:08;;;;;;;1.70;0.80;;;;;;;;;;4998758;28;20069;-87
2022/11/07 09:51:39;;;;;;;1.50;1.10;;;;;;;;;;4997298;28;20112;-85
2022/11/07 09:54:18;;;;;;;2.75;1.75;;;;;;;;;;4979731;28;20038;-85
2022/11/07 09:56:43;;;;;;;2.58;1.60;;;;;;;;;;4998119;28;20045;-86
2022/11/07 09:59:58;;;;;;;1.33;0.90;;;;;;;;;;4998909;28;20110;-86
2022/11/07 10:02:28;;;;;;;2.92;1.63;;;;;;;;;;4991365;28;20054;-85
2022/11/07 10:04:59;;;;;;;3.38;2.05;;;;;;;;;;4997154;28;20038;-86
2022/11/07 10:07:48;;;;;;;3.10;1.00;;;;;;;;;;4997206;28;20035;-87
2022/11/07 10:10:25;;;;;;;1.65;0.93;;;;;;;;;;4985936;28;20050;-86
2022/11/07 10:13:12;;;;;;;1.55;0.90;;;;;;;;;;4997733;28;20027;-87
2022/11/07 10:15:44;;;;;;;1.73;1.23;;;;;;;;;;4999189;28;20109;-87
2022/11/07 10:18:36;;;;;;;4.15;1.83;;;;;;;;;;4999427;28;20030;-87
2022/11/07 10:21:02;;;;;;;2.55;1.30;;;;;;;;;;4998255;28;20069;-86
2022/11/07 10:23:58;;;;;;;5.65;3.00;;;;;;;;;;5000215;28;20038;-86
2022/11/07 10:26:27;;;;;;;3.33;1.30;;;;;;;;;;4997276;28;20038;-87
2022/11/07 10:29:09;;;;;;;5.50;2.00;;;;;;;;;;4998492;28;20050;-87
2022/11/07 10:31:39;;;;;;;3.58;2.13;;;;;;;;;;4997757;28;20125;-87
2022/11/07 10:34:30;;;;;;;9.50;4.50;;;;;;;;;;4997853;28;20022;-86
2022/11/07 10:36:56;;;;;;;5.18;2.60;;;;;;;;;;4998423;28;20478;-86
2022/11/07 10:39:21;;;;;;;4.60;1.88;;;;;;;;;;4998564;28;20050;-86
2022/11/07 10:42:04;;;;;;;3.25;1.38;;;;;;;;;;4998087;28;20491;-86
2022/11/07 10:44:30;;;;;;;3.33;1.40;;;;;;;;;;4998016;28;20510;-86
2022/11/07 10:46:56;;;;;;;2.13;1.10;;;;;;;;;;4998739;28;20381;-87
2022/11/07 10:49:27;;;;;;;1.20;0.80;;;;;;;;;;4980872;28;20042;-86
2022/11/07 10:52:03;;;;;;;0.85;0.80;;;;;;;;;;4997365;28;20034;-86
2022/11/07 10:54:30;;;;;;;1.02;0.80;;;;;;;;;;4994658;28;20558;-87
2022/11/07 10:57:08;;;;;;;4.28;0.90;;;;;;;;;;4994186;28;20503;-86
2022/11/07 10:59:36;;;;;;;1.83;1.30;;;;;;;;;;4995009;28;20113;-88
2022/11/07 11:02:12;;;;;;;5.45;1.45;;;;;;;;;;4977591;28;20054;-86
2022/11/07 11:04:47;;;;;;;3.58;0.90;;;;;;;;;;4957243;28;20161;-86
2022/11/07 11:07:12;;;;;;;2.35;0.80;;;;;;;;;;4974943;28;20047;-87
2022/11/07 11:09:49;;;;;;;0.82;0.57;;;;;;;;;;4974976;28;20115;-86
2022/11/07 11:12:15;;;;;;;4.63;0.90;;;;;;;;;;4975490;28;20038;-87
2022/11/07 11:14:41;;;;;;;1.20;0.70;;;;;;;;;;4940312;28;20035;-86
2022/11/07 11:17:24;;;;;;;0.73;0.65;;;;;;;;;;4974928;28;20451;-87
2022/11/07 11:19:52;;;;;;;1.40;1.00;;;;;;;;;;4975587;28;20113;-87
2022/11/07 11:22:20;;;;;;;1.70;1.20;;;;;;;;;;4974747;28;20332;-86
2022/11/07 11:24:56;;;;;;;4.82;1.80;;;;;;;;;;4957045;28;20102;-86
2022/11/07 11:27:24;;;;;;;2.28;1.70;;;;;;;;;;4975094;28;20443;-85
2022/11/07 11:30:07;;;;;;;4.32;2.75;;;;;;;;;;4975272;28;20484;-86
2022/11/07 11:32:42;;;;;;;;;;;;;;;;;;4976326;28;20051;-85
2022/11/07 11:35:13;;;;;;;1.52;0.70;;;;;;;;;;4974522;28;19960;-86
2022/11/07 11:37:43;;;;;;;1.50;0.60;;;;;;;;;;4958168;28;20125;-86
2022/11/07 11:40:17;;;;;;;0.85;0.60;;;;;;;;;;4958464;28;20680;-87
2022/11/07 11:43:10;;;;;;;2.03;0.82;;;;;;;;;;4975379;28;20039;-86
2022/11/07 11:45:39;;;;;;;1.02;0.88;;;;;;;;;;4957044;28;20045;-87
2022/11/07 11:48:10;;;;;;;1.88;0.60;;;;;;;;;;4961997;28;20042;-87
2022/11/07 11:50:42;;;;;;;0.75;0.50;;;;;;;;;;4974521;28;20227;-86
2022/11/07 11:53:20;;;;;;;1.73;0.60;;;;;;;;;;4957539;28;20057;-86
2022/11/07 11:56:04;;;;;;;1.10;0.68;;;;;;;;;;4974110;28;20059;-86
2022/11/07 11:58:35;;;;;;;;;;;;;;;;;;4975241;28;20042;-86
2022/11/07 12:01:33;;;;;;;1.27;0.90;;;;;;;;;;4975606;28;19914;-86
2022/11/07 12:04:17;;;;;;;1.27;0.57;;;;;;;;;;4961145;28;20031;-87
2022/11/07 12:06:46;;;;;;;4.25;1.58;;;;;;;;;;4975116;28;20027;-87
2022/11/07 12:09:23;;;;;;;1.27;0.60;;;;;;;;;;4975066;28;20043;-86
2022/11/07 12:12:15;;;;;;;1.52;0.80;;;;;;;;;;4974965;28;20039;-86
2022/11/07 12:14:40;;;;;;;3.47;0.63;;;;;;;;;;4972820;28;20038;-86
2022/11/07 12:17:24;;;;;;;1.90;0.60;;;;;;;;;;4975233;28;20023;-86
2022/11/07 12:20:13;;;;;;;1.42;0.70;;;;;;;;;;4981629;28;20035;-87
2022/11/07 12:22:56;;;;;;;3.45;0.60;;;;;;;;;;4958671;28;20039;-87
2022/11/07 12:25:48;;;;;;;1.13;0.60;;;;;;;;;;4959124;28;20042;-87
2022/11/07 12:28:41;;;;;;;0.75;0.50;;;;;;;;;;4958393;28;20034;-87
2022/11/07 12:31:09;;;;;;;1.52;0.60;;;;;;;;;;4975265;28;20035;-87
2022/11/07 12:33:44;;;;;;;1.65;0.80;;;;;;;;;;4980234;28;20045;-89
2022/11/07 12:36:13;;;;;;;2.15;0.55;;;;;;;;;;4962592;28;20106;-86
2022/11/07 12:38:48;;;;;;;1.75;0.60;;;;;;;;;;4959698;28;20050;-85
2022/11/07 12:41:45;;;;;;;1.52;0.57;;;;;;;;;;4974912;28;20043;-85
2022/11/07 12:44:25;;;;;;;1.17;0.52;;;;;;;;;;4975063;28;20510;-85
2022/11/07 12:46:53;;;;;;;2.42;0.60;;;;;;;;;;4978393;28;20034;-85
2022/11/07 12:50:00;;;;;;;1.67;0.50;;;;;;;;;;4978562;28;20038;-84
2022/11/07 12:52:52;;;;;;;1.48;0.68;;;;;;;;;;4940499;28;20058;-85
2022/11/07 12:55:32;;;;;;;1.92;0.70;;;;;;;;;;4977703;28;20043;-85
2022/11/07 12:57:58;;;;;;;1.65;0.50;;;;;;;;;;4977742;28;20031;-85
2022/11/07 13:00:28;;;;;;;1.80;0.60;;;;;;;;;;4977713;28;20031;-84
2022/11/07 13:02:59;;;;;;;1.48;0.80;;;;;;;;;;4960236;28;20117;-85
2022/11/07 13:05:57;;;;;;;2.20;0.75;;;;;;;;;;4976884;28;20133;-85
2022/11/07 13:08:32;;;;;;;0.85;0.52;;;;;;;;;;4967004;28;20047;-85
2022/11/07 13:11:16;;;;;;;1.35;0.60;;;;;;;;;;4960251;28;20041;-85
2022/11/07 13:14:07;;;;;;;0.68;0.47;;;;;;;;;;4977174;28;20042;-85
2022/11/07 13:16:35;;;;;;;0.47;0.40;;;;;;;;;;4951409;28;20051;-85
2022/11/07 13:19:30;;;;;;;1.10;0.50;;;;;;;;;;4977532;28;20038;-85
2022/11/07 13:22:02;;;;;;;1.13;0.85;;;;;;;;;;4978188;28;20034;-84
2022/11/07 13:24:28;;;;;;;1.20;0.68;;;;;;;;;;4959379;28;20042;-85
2022/11/07 13:26:54;;;;;;;3.33;0.73;;;;;;;;;;4959752;28;20031;-85
2022/11/07 13:29:35;;;;;;;0.80;0.57;;;;;;;;;;4976681;28;20486;-85
2022/11/07 13:32:12;;;;;;;0.85;0.52;;;;;;;;;;4960366;28;20033;-89
2022/11/07 13:34:58;;;;;;;1.38;0.55;;;;;;;;;;4975981;28;20035;-84
2022/11/07 13:37:30;;;;;;;2.17;0.60;;;;;;;;;;4958507;28;20051;-84
2022/11/07 13:40:05;;;;;;;1.30;0.60;;;;;;;;;;4976841;28;20505;-84
2022/11/07 13:42:32;;;;;;;1.17;0.68;;;;;;;;;;4976623;28;20035;-85
2022/11/07 13:45:27;;;;;;;1.45;0.63;;;;;;;;;;4976332;28;20110;-84
2022/11/07 13:47:59;;;;;;;1.30;0.60;;;;;;;;;;4949451;28;20396;-85
2022/11/07 13:50:39;;;;;;;1.98;0.90;;;;;;;;;;4978693;28;20038;-86
2022/11/07 13:53:31;;;;;;;2.60;1.00;;;;;;;;;;4960147;28;20035;-85
2022/11/07 13:56:03;;;;;;;1.45;0.80;;;;;;;;;;4975973;28;20117;-85
2022/11/07 13:58:32;;;;;;;1.13;0.80;;;;;;;;;;4977363;28;20066;-85
2022/11/07 14:01:09;;;;;;;1.50;0.68;;;;;;;;;;4976082;28;20070;-85
2022/11/07 14:03:34;;;;;;;2.53;0.80;;;;;;;;;;4977402;28;20579;-85
2022/11/07 14:06:01;;;;;;;1.38;0.70;;;;;;;;;;4976629;28;20058;-85
2022/11/07 14:08:33;;;;;;;1.20;0.70;;;;;;;;;;4976409;28;20077;-84
2022/11/07 14:10:59;;;;;;;1.05;0.65;;;;;;;;;;4959110;28;20118;-85
2022/11/07 14:13:36;;;;;;;1.40;0.80;;;;;;;;;;4957942;28;20125;-84
2022/11/07 14:16:15;;;;;;;2.13;0.82;;;;;;;;;;4975654;28;20045;-84
2022/11/07 14:18:51;;;;;;;3.22;0.70;;;;;;;;;;4959726;28;20130;-85
2022/11/07 14:21:24;;;;;;;1.27;0.90;;;;;;;;;;4981813;28;20109;-85
2022/11/07 14:23:49;;;;;;;1.92;0.80;;;;;;;;;;4978727;28;20038;-83
2022/11/07 14:26:20;;;;;;;1.58;0.63;;;;;;;;;;4976132;28;20081;-85
2022/11/07 14:28:47;;;;;;;1.27;0.50;;;;;;;;;;4977521;28;20039;-85
2022/11/07 14:31:28;;;;;;;0.77;0.52;;;;;;;;;;4976760;28;20038;-85
2022/11/07 14:34:04;;;;;;;2.80;0.68;;;;;;;;;;4976493;28;20069;-84
2022/11/07 14:36:30;;;;;;;0.90;0.60;;;;;;;;;;4958512;28;20038;-85
2022/11/07 14:39:14;;;;;;;0.90;0.70;;;;;;;;;;4977018;28;20031;-85
2022/11/07 14:41:42;;;;;;;0.70;0.50;;;;;;;;;;4977083;28;20500;-85
2022/11/07 14:44:14;;;;;;;0.70;0.60;;;;;;;;;;4958012;28;20034;-85
2022/11/07 14:46:40;;;;;;;1.45;0.70;;;;;;;;;;4976646;28;20046;-85
2022/11/07 14:49:22;;;;;;;2.15;0.60;;;;;;;;;;4975647;28;20423;-85
2022/11/07 14:51:47;;;;;;;1.58;0.90;;;;;;;;;;4975971;28;20081;-85
2022/11/07 14:54:17;;;;;;;1.42;1.02;;;;;;;;;;4958302;28;20039;-86
2022/11/07 14:56:46;;;;;;;2.20;1.00;;;;;;;;;;4976038;28;20050;-86
2022/11/07 14:59:16;;;;;;;2.47;1.00;;;;;;;;;;4958793;28;20044;-86
2022/11/07 15:02:06;;;;;;;1.35;0.80;;;;;;;;;;4960215;28;20038;-85
2022/11/07 15:04:36;;;;;;;2.70;1.20;;;;;;;;;;4941589;28;20035;-85
2022/11/07 15:07:27;;;;;;;2.20;0.90;;;;;;;;;;4974321;28;20035;-85
2022/11/07 15:09:55;;;;;;;2.20;1.30;;;;;;;;;;4974998;28;20043;-85
2022/11/07 15:12:24;;;;;;;2.50;1.30;;;;;;;;;;4974472;28;20503;-85